EWG83FA EDDM-EDDL
Flight info
| Callsign | EWG83FA |
|---|---|
| Flight time | N/A |
| Altitude | 32000 |
| Route | GIVMI6Q/08L GIVMI Y101 INBED DCT REKDI DCT LOHRE Z850 ARPEG/N0387F240 Z850 ADEMI T854 DOMUX |
| Aircraft | A320/M-SDE2E3FGIRWXY/HB1 |
Departure
| Time | 2026-05-01 07:28 |
|---|---|
| Airport | Munich Airport (EDDM) |
Arrival
| Time | N/A |
|---|---|
| Airport | Düsseldorf Airport (EDDL) |
| Time | Latitude | Longitude | Altitude | Speed | Heading |
|---|---|---|---|---|---|
| 2026-05-01 07:23 | 48.36058 | 11.78840 | 1463 ft | 19 kts | 263° |
| 2026-05-01 07:23 | 48.36024 | 11.78402 | 1465 ft | 22 kts | 263° |
| 2026-05-01 07:24 | 48.36005 | 11.78161 | 1461 ft | 24 kts | 263° |
| 2026-05-01 07:24 | 48.35985 | 11.77905 | 1458 ft | 24 kts | 263° |
| 2026-05-01 07:24 | 48.35964 | 11.77649 | 1458 ft | 24 kts | 263° |
| 2026-05-01 07:24 | 48.35947 | 11.77411 | 1463 ft | 21 kts | 263° |
| 2026-05-01 07:25 | 48.35930 | 11.77197 | 1466 ft | 19 kts | 264° |
| 2026-05-01 07:25 | 48.35939 | 11.77069 | 1468 ft | 11 kts | 308° |
| 2026-05-01 07:25 | 48.35998 | 11.76982 | 1468 ft | 11 kts | 341° |
| 2026-05-01 07:25 | 48.36074 | 11.76967 | 1468 ft | 8 kts | 354° |
| 2026-05-01 07:26 | 48.36096 | 11.76964 | 1468 ft | 1 kts | 354° |
| 2026-05-01 07:26 | 48.36118 | 11.76960 | 1468 ft | 4 kts | 353° |
| 2026-05-01 07:26 | 48.36163 | 11.76951 | 1468 ft | 7 kts | 353° |
| 2026-05-01 07:26 | 48.36233 | 11.76940 | 1467 ft | 11 kts | 360° |
| 2026-05-01 07:27 | 48.36296 | 11.77019 | 1465 ft | 13 kts | 77° |
| 2026-05-01 07:27 | 48.36312 | 11.77219 | 1464 ft | 39 kts | 83° |
| 2026-05-01 07:27 | 48.36371 | 11.77984 | 1458 ft | 105 kts | 84° |
| 2026-05-01 07:27 | 48.36478 | 11.79367 | 1456 ft | 159 kts | 84° |
| 2026-05-01 07:28 | 48.36609 | 11.81067 | 1967 ft | 163 kts | 84° |
| 2026-05-01 07:28 | 48.36735 | 11.82711 | 2694 ft | 161 kts | 84° |
| 2026-05-01 07:28 | 48.36859 | 11.84337 | 3389 ft | 159 kts | 83° |
| 2026-05-01 07:28 | 48.37294 | 11.85939 | 3717 ft | 178 kts | 53° |
| 2026-05-01 07:29 | 48.38418 | 11.86968 | 4017 ft | 206 kts | 17° |
| 2026-05-01 07:29 | 48.39944 | 11.86943 | 4340 ft | 232 kts | 358° |
| 2026-05-01 07:29 | 48.41558 | 11.86418 | 4760 ft | 254 kts | 339° |
| 2026-05-01 07:29 | 48.43023 | 11.84698 | 5185 ft | 278 kts | 313° |
| 2026-05-01 07:30 | 48.44264 | 11.82443 | 5863 ft | 285 kts | 312° |
| 2026-05-01 07:30 | 48.45526 | 11.80132 | 6658 ft | 287 kts | 313° |
| 2026-05-01 07:30 | 48.46801 | 11.77828 | 7451 ft | 290 kts | 313° |
| 2026-05-01 07:30 | 48.48092 | 11.75523 | 8247 ft | 292 kts | 314° |
| 2026-05-01 07:31 | 48.49401 | 11.73205 | 9051 ft | 294 kts | 314° |
| 2026-05-01 07:31 | 48.53408 | 11.66127 | 11379 ft | 301 kts | 314° |
| 2026-05-01 07:32 | 48.56144 | 11.61295 | 12863 ft | 306 kts | 314° |
| 2026-05-01 07:32 | 48.57518 | 11.58863 | 13554 ft | 309 kts | 314° |
| 2026-05-01 07:33 | 48.60433 | 11.53712 | 14254 ft | 339 kts | 314° |
| 2026-05-01 07:33 | 48.61984 | 11.50957 | 14780 ft | 346 kts | 314° |
| 2026-05-01 07:33 | 48.65110 | 11.45384 | 16052 ft | 352 kts | 315° |
| 2026-05-01 07:34 | 48.66696 | 11.42559 | 16643 ft | 355 kts | 315° |
| 2026-05-01 07:34 | 48.70031 | 11.36989 | 17799 ft | 359 kts | 322° |
| 2026-05-01 07:34 | 48.71957 | 11.34600 | 18368 ft | 358 kts | 328° |
| 2026-05-01 07:35 | 48.74010 | 11.32462 | 18916 ft | 360 kts | 330° |
| 2026-05-01 07:35 | 48.76092 | 11.30375 | 19459 ft | 362 kts | 331° |
| 2026-05-01 07:35 | 48.78212 | 11.28252 | 19986 ft | 365 kts | 330° |
| 2026-05-01 07:35 | 48.80315 | 11.26133 | 20509 ft | 367 kts | 330° |
| 2026-05-01 07:36 | 48.82474 | 11.23991 | 20870 ft | 373 kts | 333° |
| 2026-05-01 07:36 | 48.84767 | 11.22094 | 21305 ft | 375 kts | 339° |
| 2026-05-01 07:36 | 48.87153 | 11.20570 | 21801 ft | 374 kts | 344° |
| 2026-05-01 07:36 | 48.89652 | 11.19258 | 22290 ft | 376 kts | 345° |
| 2026-05-01 07:37 | 48.94643 | 11.16749 | 23216 ft | 381 kts | 345° |
| 2026-05-01 07:37 | 48.97201 | 11.15460 | 23667 ft | 383 kts | 345° |
| 2026-05-01 07:37 | 48.99718 | 11.14186 | 24108 ft | 386 kts | 345° |
| 2026-05-01 07:38 | 49.02278 | 11.12884 | 24549 ft | 388 kts | 345° |
| 2026-05-01 07:38 | 49.04874 | 11.11559 | 25011 ft | 389 kts | 345° |
| 2026-05-01 07:38 | 49.09992 | 11.08945 | 25848 ft | 392 kts | 345° |
| 2026-05-01 07:39 | 49.12627 | 11.07601 | 26250 ft | 394 kts | 345° |
| 2026-05-01 07:39 | 49.15210 | 11.06283 | 26630 ft | 397 kts | 345° |
| 2026-05-01 07:39 | 49.20493 | 11.03581 | 27387 ft | 400 kts | 345° |
| 2026-05-01 07:40 | 49.23127 | 11.02227 | 27751 ft | 402 kts | 345° |
| 2026-05-01 07:40 | 49.25803 | 11.00848 | 28112 ft | 404 kts | 345° |
| 2026-05-01 07:40 | 49.28461 | 10.99476 | 28449 ft | 406 kts | 345° |
| 2026-05-01 07:40 | 49.31140 | 10.98093 | 28773 ft | 408 kts | 344° |
| 2026-05-01 07:41 | 49.33874 | 10.96678 | 29094 ft | 410 kts | 343° |
| 2026-05-01 07:41 | 49.36493 | 10.94944 | 29390 ft | 415 kts | 335° |
| 2026-05-01 07:41 | 49.41147 | 10.89549 | 29978 ft | 427 kts | 317° |
| 2026-05-01 07:42 | 49.43074 | 10.86131 | 30271 ft | 430 kts | 313° |
| 2026-05-01 07:42 | 49.44968 | 10.82541 | 30569 ft | 432 kts | 313° |
| 2026-05-01 07:42 | 49.46833 | 10.78962 | 30824 ft | 433 kts | 312° |
| 2026-05-01 07:42 | 49.48726 | 10.75333 | 31068 ft | 435 kts | 312° |
| 2026-05-01 07:43 | 49.50605 | 10.71739 | 31296 ft | 437 kts | 313° |
| 2026-05-01 07:43 | 49.52535 | 10.68054 | 31570 ft | 438 kts | 312° |
| 2026-05-01 07:43 | 49.56340 | 10.60782 | 32088 ft | 439 kts | 313° |
| 2026-05-01 07:44 | 49.60188 | 10.53417 | 32361 ft | 441 kts | 312° |
| 2026-05-01 07:44 | 49.64024 | 10.46056 | 32372 ft | 441 kts | 312° |
| 2026-05-01 07:45 | 49.67651 | 10.38411 | 32375 ft | 443 kts | 308° |
| 2026-05-01 07:45 | 49.71122 | 10.30557 | 32371 ft | 444 kts | 307° |
| 2026-05-01 07:46 | 49.74584 | 10.22681 | 32373 ft | 444 kts | 307° |
| 2026-05-01 07:47 | 49.79752 | 10.10899 | 32379 ft | 443 kts | 307° |
| 2026-05-01 07:47 | 49.83203 | 10.03006 | 32376 ft | 443 kts | 307° |
| 2026-05-01 07:48 | 49.88377 | 9.91128 | 32367 ft | 443 kts | 307° |
| 2026-05-01 07:48 | 49.91802 | 9.83236 | 32365 ft | 443 kts | 307° |
| 2026-05-01 07:49 | 49.96957 | 9.71311 | 32365 ft | 443 kts | 306° |
| 2026-05-01 07:50 | 50.00271 | 9.63608 | 32361 ft | 443 kts | 307° |
| 2026-05-01 07:50 | 50.05745 | 9.51818 | 32358 ft | 441 kts | 313° |
| 2026-05-01 07:51 | 50.09930 | 9.44873 | 32360 ft | 439 kts | 319° |
| 2026-05-01 07:52 | 50.16917 | 9.35656 | 32368 ft | 438 kts | 323° |
| 2026-05-01 07:52 | 50.21648 | 9.29695 | 32370 ft | 438 kts | 323° |
| 2026-05-01 07:53 | 50.28701 | 9.20744 | 32371 ft | 438 kts | 323° |
| 2026-05-01 07:53 | 50.33429 | 9.14717 | 32367 ft | 438 kts | 323° |
| 2026-05-01 07:55 | 50.45199 | 8.99645 | 32359 ft | 438 kts | 322° |
| 2026-05-01 07:56 | 50.57031 | 8.84763 | 32368 ft | 437 kts | 325° |
| 2026-05-01 07:57 | 50.64277 | 8.76090 | 32370 ft | 437 kts | 325° |
| 2026-05-01 07:58 | 50.73888 | 8.64500 | 32366 ft | 436 kts | 324° |
| 2026-05-01 07:58 | 50.78731 | 8.58633 | 32259 ft | 438 kts | 324° |
| 2026-05-01 07:59 | 50.83535 | 8.52793 | 31034 ft | 435 kts | 325° |
| 2026-05-01 07:59 | 50.88284 | 8.47007 | 29819 ft | 428 kts | 324° |
| 2026-05-01 08:00 | 50.97432 | 8.35813 | 27934 ft | 406 kts | 325° |
| 2026-05-01 08:01 | 51.04261 | 8.28308 | 26525 ft | 391 kts | 332° |
| 2026-05-01 08:01 | 51.06583 | 8.26215 | 26072 ft | 387 kts | 333° |
| 2026-05-01 08:01 | 51.08934 | 8.24131 | 25613 ft | 383 kts | 333° |
| 2026-05-01 08:02 | 51.13506 | 8.20079 | 24719 ft | 377 kts | 333° |
| 2026-05-01 08:02 | 51.15792 | 8.18045 | 24271 ft | 374 kts | 333° |
| 2026-05-01 08:03 | 51.20296 | 8.14024 | 23370 ft | 369 kts | 333° |
| 2026-05-01 08:03 | 51.22504 | 8.12048 | 22926 ft | 367 kts | 333° |
| 2026-05-01 08:03 | 51.26949 | 8.08065 | 22035 ft | 363 kts | 333° |
| 2026-05-01 08:04 | 51.31324 | 8.04135 | 21157 ft | 360 kts | 333° |
| 2026-05-01 08:04 | 51.35663 | 8.00226 | 20278 ft | 358 kts | 333° |
| 2026-05-01 08:05 | 51.40010 | 7.96303 | 19379 ft | 357 kts | 333° |
| 2026-05-01 08:05 | 51.42136 | 7.94384 | 18956 ft | 356 kts | 333° |
| 2026-05-01 08:05 | 51.44262 | 7.92221 | 18679 ft | 364 kts | 321° |
| 2026-05-01 08:06 | 51.46845 | 7.85292 | 17378 ft | 373 kts | 281° |
| 2026-05-01 08:06 | 51.46373 | 7.77288 | 15804 ft | 361 kts | 252° |
| 2026-05-01 08:07 | 51.44963 | 7.69986 | 15068 ft | 328 kts | 252° |
| 2026-05-01 08:07 | 51.43686 | 7.63092 | 13825 ft | 321 kts | 252° |
| 2026-05-01 08:08 | 51.43063 | 7.59654 | 13162 ft | 318 kts | 252° |
| 2026-05-01 08:08 | 51.41678 | 7.53087 | 11872 ft | 310 kts | 240° |
| 2026-05-01 08:09 | 51.39520 | 7.47252 | 10578 ft | 305 kts | 246° |
| 2026-05-01 08:09 | 51.39126 | 7.43960 | 9912 ft | 308 kts | 272° |
| 2026-05-01 08:09 | 51.39584 | 7.40656 | 9292 ft | 305 kts | 293° |
| 2026-05-01 08:10 | 51.41700 | 7.34838 | 8040 ft | 300 kts | 303° |
| 2026-05-01 08:10 | 51.43957 | 7.29340 | 6789 ft | 295 kts | 303° |
| 2026-05-01 08:11 | 51.46204 | 7.23929 | 5566 ft | 290 kts | 301° |
| 2026-05-01 08:11 | 51.47376 | 7.17939 | 4368 ft | 282 kts | 260° |
| 2026-05-01 08:12 | 51.45803 | 7.12583 | 3704 ft | 263 kts | 229° |
| 2026-05-01 08:12 | 51.44726 | 7.10226 | 3360 ft | 261 kts | 227° |
| 2026-05-01 08:12 | 51.42588 | 7.05753 | 3003 ft | 244 kts | 226° |
| 2026-05-01 08:13 | 51.41575 | 7.03646 | 2985 ft | 229 kts | 226° |
| 2026-05-01 08:13 | 51.40633 | 7.01689 | 2981 ft | 217 kts | 226° |
| 2026-05-01 08:13 | 51.38904 | 6.98084 | 2958 ft | 191 kts | 225° |
| 2026-05-01 08:14 | 51.38107 | 6.96425 | 2888 ft | 187 kts | 225° |
| 2026-05-01 08:14 | 51.37336 | 6.94819 | 2733 ft | 179 kts | 224° |
| 2026-05-01 08:14 | 51.36589 | 6.93262 | 2473 ft | 176 kts | 225° |
| 2026-05-01 08:14 | 51.35858 | 6.91734 | 2216 ft | 170 kts | 225° |
| 2026-05-01 08:15 | 51.35162 | 6.90273 | 1972 ft | 164 kts | 224° |
| 2026-05-01 08:15 | 51.33847 | 6.87516 | 1557 ft | 146 kts | 224° |
| 2026-05-01 08:15 | 51.33238 | 6.86244 | 1375 ft | 143 kts | 224° |
| 2026-05-01 08:16 | 51.32623 | 6.84966 | 1194 ft | 146 kts | 225° |
| 2026-05-01 08:16 | 51.32013 | 6.83689 | 1007 ft | 146 kts | 226° |